ADDS TAF Board (Experimental) INFO

IDs: Format: Expanded Condensed

Updated at: 0400 UTC 01 Oct 2014

KPIT - Pittsburgh Intl, PA, US

Issued at 0232 UTC 01 Oct 2014
Time0351Z01/04Z01/05Z01/06Z01/07Z01/08Z01/09Z01/10Z01/11Z01/12Z01/13Z01/14Z01/15Z01/16Z
TypeOBSPRVLPRVLPRVLPRVLPRVLPRVLPRVLPRVLPRVLPRVLPRVLPRVLPRVL
VIS10>6>6333111155>6>6
CIG720202020201010101020203535
CoverOVCBKNBKNBKNBKNBKNBKNBKNBKNBKNBKNBKNBKNBKN
FltCatIFRMVFRMVFRMVFRMVFRMVFRIFRIFRIFRIFRMVFRMVFRVFRVFR
WX------BRBRBRBRBRBRBRBRBR----
WDir10360360VRBVRBVRBVRBVRBVRBVRB140140120120
WSpd75533333335555
WGst----------------------------
R10/28
XWnd755VRBVRBVRBVRBVRBVRBVRB-4-4-2-2
HWnd1-0-0VRBVRBVRBVRBVRBVRBVRB3344
R14/32
XWnd633VRBVRBVRBVRBVRBVRBVRB-0-011
HWnd-4-4-4VRBVRBVRBVRBVRBVRBVRB5555
Raw TAF
KPIT 010232Z 0103/0206 36005KT P6SM SCT010 BKN020
  FM010600 VRB03KT 3SM BR BKN020
  FM010900 VRB03KT 1SM BR BKN010
  FM011300 14005KT 5SM BR BKN020
  FM011500 12005KT P6SM BKN035


Raw METAR
KPIT 010351Z 01007KT 10SM OVC007 15/14 A2997 RMK AO2 SLP150 BINOVC T01500144
KPIT 010331Z 01009KT 10SM BKN008 OVC018 15/14 A2996 RMK AO2 T01500144
KPIT 010251Z 35005KT 10SM FEW008 BKN023 OVC120 16/14 A2996 RMK AO2 SLP148 60037 T01560144 51014

TAF Board Legend

Hazard VFR MVFR IFR LIFR
Visibility (sm) >5 3≤X≤5 1≤X<3 <1
Ceiling (100 ft) >30 10≤X≤30 5≤X<10 <5
Wind Speed (kt) <10 10≤X<20 20≤X<30 ≥30
Wind Gust (kt) <15 15≤X<25 25≤X<35 ≥35
Weather No Wx Reported VCTS,-TS,-FZRA TS,FZRA +TS,+FZRA


Page loaded:  04:00 UTC  |   09:00 PM Pacific  |   10:00 PM Mountain  |   11:00 PM Central  |   12:00 AM Eastern

 

ADVISORIES

FORECASTS

FORECASTS

OBSERVATIONS

USER TOOLS

ABOUT US